createdAt,value
2016-12-10T00:00:34.231Z,0
2016-12-10T00:01:33.938Z,0
2016-12-10T00:02:33.971Z,0
2016-12-10T00:03:33.966Z,0
2016-12-10T00:04:34.301Z,0
2016-12-10T00:05:33.687Z,0
2016-12-10T00:06:34.037Z,0
2016-12-10T00:07:34.031Z,0
2016-12-10T00:08:34.361Z,0
2016-12-10T00:09:34.063Z,0
2016-12-10T00:10:34.113Z,0
2016-12-10T00:11:34.409Z,0
2016-12-10T00:12:34.112Z,0
2016-12-10T00:13:34.127Z,0
2016-12-10T00:14:34.144Z,0
2016-12-10T00:15:34.162Z,0
2016-12-10T00:16:34.206Z,0
2016-12-10T00:17:34.192Z,0
2016-12-10T00:18:35.255Z,0
2016-12-10T00:19:36.299Z,0
2016-12-10T00:20:35.126Z,0
2016-12-10T00:21:36.641Z,0
2016-12-10T00:22:36.271Z,0
2016-12-10T00:23:37.270Z,0
2016-12-10T00:24:35.141Z,0
2016-12-10T00:25:34.339Z,0
2016-12-10T00:26:34.657Z,0
2016-12-10T00:27:34.068Z,0
2016-12-10T00:28:34.685Z,0
2016-12-10T00:29:34.406Z,0
2016-12-10T00:30:34.714Z,0
2016-12-10T00:31:35.046Z,0
2016-12-10T00:32:34.432Z,0
2016-12-10T00:33:34.445Z,0
2016-12-10T00:34:34.466Z,0
2016-12-10T00:35:34.842Z,0
2016-12-10T00:36:34.175Z,0
2016-12-10T00:37:34.521Z,0
2016-12-10T00:38:34.209Z,0
2016-12-10T00:39:34.858Z,0
2016-12-10T00:40:34.870Z,0
2016-12-10T00:41:34.260Z,0
2016-12-10T00:42:34.589Z,0
2016-12-10T00:43:34.918Z,0
2016-12-10T00:44:34.617Z,0
2016-12-10T00:45:34.639Z,0
2016-12-10T00:46:34.652Z,0
2016-12-10T00:47:35.305Z,0
2016-12-10T00:48:34.997Z,0
2016-12-10T00:49:35.017Z,0
2016-12-10T00:50:34.715Z,0
2016-12-10T00:51:34.729Z,0
2016-12-10T00:52:34.768Z,0
2016-12-10T00:53:34.762Z,0
2016-12-10T00:54:35.405Z,0
2016-12-10T00:55:34.800Z,0
2016-12-10T00:56:35.125Z,0
2016-12-10T00:57:34.510Z,0
2016-12-10T00:58:34.526Z,0
2016-12-10T00:59:34.889Z,0
2016-12-10T01:00:34.558Z,0
2016-12-10T01:01:34.893Z,0
2016-12-10T01:02:34.907Z,0
2016-12-10T01:03:35.234Z,0
2016-12-10T01:04:35.567Z,0
2016-12-10T01:05:34.949Z,0
2016-12-10T01:06:34.648Z,0
2016-12-10T01:07:35.298Z,0
2016-12-10T01:08:34.683Z,0
2016-12-10T01:09:35.646Z,0
2016-12-10T01:10:35.348Z,0
2016-12-10T01:11:35.367Z,0
2016-12-10T01:12:35.059Z,0
2016-12-10T01:13:35.392Z,0
2016-12-10T01:14:35.102Z,0
2016-12-10T01:15:35.115Z,0
2016-12-10T01:16:35.129Z,0
2016-12-10T01:17:35.136Z,0
2016-12-10T01:18:35.154Z,0
2016-12-10T01:19:35.371Z,0
2016-12-10T01:20:35.501Z,0
2016-12-10T01:21:34.892Z,0
2016-12-10T01:22:35.220Z,0
2016-12-10T01:23:35.237Z,0
2016-12-10T01:24:34.932Z,0
2016-12-10T01:25:35.578Z,0
2016-12-10T01:26:35.295Z,0
2016-12-10T01:27:35.619Z,0
2016-12-10T01:28:35.314Z,0
2016-12-10T01:29:35.326Z,0
2016-12-10T01:30:35.343Z,0
2016-12-10T01:31:35.355Z,0
2016-12-10T01:32:35.689Z,0
2016-12-10T01:33:35.384Z,0
2016-12-10T01:34:35.086Z,0
2016-12-10T01:35:35.739Z,0
2016-12-10T01:36:35.436Z,0
2016-12-10T01:37:35.131Z,0
2016-12-10T01:38:35.781Z,0
2016-12-10T01:39:35.487Z,0
2016-12-10T01:40:36.146Z,0
2016-12-10T01:41:35.851Z,0
2016-12-10T01:42:35.533Z,0
2016-12-10T01:43:35.539Z,0
2016-12-10T01:44:35.866Z,0
2016-12-10T01:45:35.905Z,0
2016-12-10T01:46:35.588Z,0
2016-12-10T01:47:35.923Z,0
2016-12-10T01:48:35.616Z,0
2016-12-10T01:49:35.633Z,0
2016-12-10T01:50:35.644Z,0
2016-12-10T01:51:35.982Z,0
2016-12-10T01:52:35.359Z,0
2016-12-10T01:53:36.320Z,0
2016-12-10T01:54:35.709Z,0
2016-12-10T01:55:35.408Z,0
2016-12-10T01:56:36.051Z,0
2016-12-10T01:57:35.749Z,0
2016-12-10T01:58:35.772Z,0
2016-12-10T01:59:35.464Z,0
2016-12-10T02:00:36.131Z,0
2016-12-10T02:01:35.812Z,0
2016-12-10T02:02:35.827Z,0
2016-12-10T02:03:36.160Z,0
2016-12-10T02:04:36.176Z,0
2016-12-10T02:05:35.892Z,0
2016-12-10T02:06:35.890Z,0
2016-12-10T02:07:35.906Z,0
2016-12-10T02:08:36.233Z,0
2016-12-10T02:09:35.938Z,0
2016-12-10T02:10:36.269Z,0
2016-12-10T02:11:35.964Z,0
2016-12-10T02:12:36.618Z,0
2016-12-10T02:13:35.989Z,0
2016-12-10T02:14:36.323Z,0
2016-12-10T02:15:35.704Z,0
2016-12-10T02:16:36.355Z,0
2016-12-10T02:17:36.385Z,0
2016-12-10T02:18:36.704Z,0
2016-12-10T02:19:36.112Z,0
2016-12-10T02:20:36.412Z,0
2016-12-10T02:21:36.111Z,0
2016-12-10T02:22:35.815Z,0
2016-12-10T02:23:36.457Z,0
2016-12-10T02:24:36.156Z,0
2016-12-10T02:25:36.493Z,0
2016-12-10T02:26:36.505Z,0
2016-12-10T02:27:36.207Z,0
2016-12-10T02:28:36.219Z,0
2016-12-10T02:29:36.233Z,0
2016-12-10T02:30:36.560Z,0
2016-12-10T02:31:36.263Z,0
2016-12-10T02:32:36.618Z,0
2016-12-10T02:33:36.295Z,0
2016-12-10T02:34:36.307Z,0
2016-12-10T02:35:36.321Z,0
2016-12-10T02:36:36.359Z,0
2016-12-10T02:37:36.667Z,0
2016-12-10T02:38:36.052Z,0
2016-12-10T02:39:36.704Z,0
2016-12-10T02:40:38.053Z,0
2016-12-10T02:41:37.822Z,0
2016-12-10T02:42:37.791Z,0
2016-12-10T02:43:37.255Z,0
2016-12-10T02:44:36.899Z,0
2016-12-10T02:45:37.610Z,0
2016-12-10T02:46:38.120Z,0
2016-12-10T02:47:37.632Z,0
2016-12-10T02:48:37.640Z,0
2016-12-10T02:49:37.163Z,0
2016-12-10T02:50:36.551Z,0
2016-12-10T02:51:36.248Z,0
2016-12-10T02:52:36.896Z,0
2016-12-10T02:53:36.915Z,0
2016-12-10T02:54:36.927Z,0
2016-12-10T02:55:36.332Z,0
2016-12-10T02:56:36.957Z,0
2016-12-10T02:57:37.289Z,0
2016-12-10T02:58:36.989Z,0
2016-12-10T02:59:36.683Z,0
2016-12-10T03:00:36.676Z,0
2016-12-10T03:01:36.894Z,0
2016-12-10T03:02:51.342Z,0
2016-12-10T03:03:37.456Z,0
2016-12-10T03:04:37.990Z,0
2016-12-10T03:05:38.842Z,0
2016-12-10T03:06:38.858Z,0
2016-12-10T03:07:37.973Z,0
2016-12-10T03:08:37.383Z,0
2016-12-10T03:09:37.925Z,0
2016-12-10T03:10:38.348Z,0
2016-12-10T03:11:37.654Z,0
2016-12-10T03:12:37.158Z,0
2016-12-10T03:13:38.442Z,0
2016-12-10T03:14:37.521Z,0
2016-12-10T03:15:38.007Z,0
2016-12-10T03:16:37.715Z,0
2016-12-10T03:17:37.589Z,0
2016-12-10T03:18:37.927Z,0
2016-12-10T03:19:38.413Z,0
2016-12-10T03:20:37.434Z,0
2016-12-10T03:21:38.514Z,0
2016-12-10T03:22:38.762Z,0
2016-12-10T03:23:38.261Z,0
2016-12-10T03:24:37.353Z,0
2016-12-10T03:25:37.585Z,0
2016-12-10T03:26:37.840Z,0
2016-12-10T03:27:37.868Z,0
2016-12-10T03:28:37.817Z,0
2016-12-10T03:29:37.799Z,0
2016-12-10T03:30:38.079Z,0
2016-12-10T03:31:38.522Z,0
2016-12-10T03:32:38.633Z,0
2016-12-10T03:33:39.096Z,0
2016-12-10T03:34:37.540Z,0
2016-12-10T03:35:38.070Z,0
2016-12-10T03:36:38.083Z,0
2016-12-10T03:37:38.386Z,0
2016-12-10T03:38:37.815Z,0
2016-12-10T03:39:37.271Z,0
2016-12-10T03:40:37.601Z,0
2016-12-10T03:41:37.619Z,0
2016-12-10T03:42:37.633Z,0
2016-12-10T03:43:37.329Z,0
2016-12-10T03:44:37.034Z,0
2016-12-10T03:45:37.680Z,0
2016-12-10T03:46:37.693Z,0
2016-12-10T03:47:37.391Z,0
2016-12-10T03:48:37.404Z,0
2016-12-10T03:49:37.422Z,0
2016-12-10T03:50:37.754Z,0
2016-12-10T03:51:37.450Z,0
2016-12-10T03:52:37.792Z,0
2016-12-10T03:53:37.796Z,0
2016-12-10T03:54:37.809Z,0
2016-12-10T03:55:37.514Z,0
2016-12-10T03:56:37.534Z,0
2016-12-10T03:57:38.171Z,0
2016-12-10T03:58:37.552Z,0
2016-12-10T03:59:37.584Z,0
2016-12-10T04:00:37.899Z,0
2016-12-10T04:01:37.915Z,0
2016-12-10T04:02:37.614Z,0
2016-12-10T04:03:37.945Z,0
2016-12-10T04:04:37.330Z,0
2016-12-10T04:05:38.289Z,0
2016-12-10T04:06:37.673Z,0
2016-12-10T04:07:38.012Z,0
2016-12-10T04:08:38.026Z,0
2016-12-10T04:09:37.404Z,0
2016-12-10T04:10:37.738Z,0
2016-12-10T04:11:38.066Z,0
2016-12-10T04:12:38.081Z,0
2016-12-10T04:13:37.545Z,0
2016-12-10T04:14:37.807Z,0
2016-12-10T04:15:37.807Z,0
2016-12-10T04:16:37.827Z,0
2016-12-10T04:17:37.864Z,0
2016-12-10T04:18:37.875Z,0
2016-12-10T04:19:37.563Z,0
2016-12-10T04:20:37.885Z,0
2016-12-10T04:21:37.904Z,0
2016-12-10T04:22:38.236Z,0
2016-12-10T04:23:38.251Z,0
2016-12-10T04:24:37.946Z,0
2016-12-10T04:25:37.967Z,0
2016-12-10T04:26:38.292Z,0
2016-12-10T04:27:37.994Z,0
2016-12-10T04:28:38.338Z,0
2016-12-10T04:29:38.360Z,0
2016-12-10T04:30:38.356Z,0
2016-12-10T04:31:38.189Z,0
2016-12-10T04:32:38.405Z,0
2016-12-10T04:33:38.413Z,0
2016-12-10T04:34:38.119Z,0
2016-12-10T04:35:38.116Z,0
2016-12-10T04:36:38.482Z,0
2016-12-10T04:37:38.456Z,0
2016-12-10T04:38:38.160Z,0
2016-12-10T04:39:38.490Z,0
2016-12-10T04:40:38.505Z,0
2016-12-10T04:41:38.519Z,0
2016-12-10T04:42:38.221Z,0
2016-12-10T04:43:38.871Z,0
2016-12-10T04:44:38.252Z,0
2016-12-10T04:45:38.897Z,0
2016-12-10T04:46:37.967Z,0
2016-12-10T04:47:38.296Z,0
2016-12-10T04:48:38.312Z,0
2016-12-10T04:49:38.330Z,0
2016-12-10T04:50:38.973Z,0
2016-12-10T04:51:38.672Z,0
2016-12-10T04:52:38.376Z,0
2016-12-10T04:53:38.705Z,0
2016-12-10T04:54:38.187Z,0
2016-12-10T04:55:38.739Z,0
2016-12-10T04:56:38.436Z,0
2016-12-10T04:57:39.083Z,0
2016-12-10T04:58:38.461Z,0
2016-12-10T04:59:38.478Z,0
2016-12-10T05:00:38.807Z,0
2016-12-10T05:01:38.830Z,0
2016-12-10T05:02:38.845Z,0
2016-12-10T05:03:38.857Z,0
2016-12-10T05:04:38.557Z,0
2016-12-10T05:05:38.256Z,0
2016-12-10T05:06:38.583Z,0
2016-12-10T05:07:38.601Z,0
2016-12-10T05:08:38.940Z,0
2016-12-10T05:09:38.636Z,0
2016-12-10T05:10:38.657Z,0
2016-12-10T05:11:38.979Z,0
2016-12-10T05:12:38.688Z,0
2016-12-10T05:13:38.382Z,0
2016-12-10T05:14:39.018Z,0
2016-12-10T05:15:39.361Z,0
2016-12-10T05:16:38.736Z,0
2016-12-10T05:17:38.752Z,0
2016-12-10T05:18:38.791Z,0
2016-12-10T05:19:39.098Z,0
2016-12-10T05:20:38.483Z,0
2016-12-10T05:21:38.813Z,0
2016-12-10T05:22:39.137Z,0
2016-12-10T05:23:39.480Z,0
2016-12-10T05:24:39.175Z,0
2016-12-10T05:25:38.881Z,0
2016-12-10T05:26:39.200Z,0
2016-12-10T05:27:38.909Z,0
2016-12-10T05:28:38.607Z,0
2016-12-10T05:29:39.246Z,0
2016-12-10T05:30:38.947Z,0
2016-12-10T05:31:38.985Z,0
2016-12-10T05:32:39.289Z,0
2016-12-10T05:33:38.990Z,0
2016-12-10T05:34:39.325Z,0
2016-12-10T05:35:38.712Z,0
2016-12-10T05:36:39.353Z,0
2016-12-10T05:37:39.055Z,0
2016-12-10T05:38:39.696Z,0
2016-12-10T05:39:39.398Z,0
2016-12-10T05:40:39.408Z,0
2016-12-10T05:41:39.448Z,0
2016-12-10T05:42:39.441Z,0
2016-12-10T05:43:39.136Z,0
2016-12-10T05:44:39.787Z,0
2016-12-10T05:45:39.488Z,0
2016-12-10T05:46:39.817Z,0
2016-12-10T05:47:39.199Z,0
2016-12-10T05:48:39.843Z,0
2016-12-10T05:49:39.553Z,0
2016-12-10T05:50:39.275Z,0
2016-12-10T05:51:39.583Z,0
2016-12-10T05:52:38.961Z,0
2016-12-10T05:53:39.605Z,0
2016-12-10T05:54:39.941Z,0
2016-12-10T05:55:39.320Z,0
2016-12-10T05:56:39.341Z,0
2016-12-10T05:57:39.351Z,0
2016-12-10T05:58:39.995Z,0
2016-12-10T05:59:39.699Z,0
2016-12-10T06:00:39.713Z,0
2016-12-10T06:01:39.725Z,0
2016-12-10T06:02:39.423Z,0
2016-12-10T06:03:39.769Z,0
2016-12-10T06:04:39.144Z,0
2016-12-10T06:05:39.183Z,0
2016-12-10T06:06:39.799Z,0
2016-12-10T06:07:39.815Z,0
2016-12-10T06:08:39.511Z,0
2016-12-10T06:09:39.844Z,0
2016-12-10T06:10:39.542Z,0
2016-12-10T06:11:39.894Z,0
2016-12-10T06:12:39.888Z,0
2016-12-10T06:13:39.900Z,0
2016-12-10T06:14:39.598Z,0
2016-12-10T06:15:39.619Z,0
2016-12-10T06:16:39.944Z,0
2016-12-10T06:17:39.647Z,0
2016-12-10T06:18:40.306Z,0
2016-12-10T06:19:40.309Z,0
2016-12-10T06:20:40.003Z,0
2016-12-10T06:21:40.026Z,0
2016-12-10T06:22:39.403Z,0
2016-12-10T06:23:40.056Z,0
2016-12-10T06:24:39.756Z,0
2016-12-10T06:25:40.082Z,0
2016-12-10T06:26:40.096Z,4
2016-12-10T06:27:40.423Z,0
2016-12-10T06:28:39.812Z,4
2016-12-10T06:29:40.143Z,0
2016-12-10T06:30:39.843Z,4
2016-12-10T06:31:39.855Z,0
2016-12-10T06:32:39.869Z,0
2016-12-10T06:33:40.202Z,4
2016-12-10T06:34:40.219Z,4
2016-12-10T06:35:40.551Z,4
2016-12-10T06:36:40.563Z,8
2016-12-10T06:37:39.974Z,8
2016-12-10T06:38:39.957Z,8
2016-12-10T06:39:39.691Z,8
2016-12-10T06:40:39.675Z,8
2016-12-10T06:41:40.667Z,12
2016-12-10T06:42:39.726Z,8
2016-12-10T06:43:40.356Z,12
2016-12-10T06:44:40.366Z,12
2016-12-10T06:45:40.700Z,16
2016-12-10T06:46:40.076Z,16
2016-12-10T06:47:40.095Z,20
2016-12-10T06:48:39.795Z,20
2016-12-10T06:49:40.441Z,24
2016-12-10T06:50:40.142Z,24
2016-12-10T06:51:40.185Z,28
2016-12-10T06:52:40.486Z,28
2016-12-10T06:53:40.193Z,32
2016-12-10T06:54:39.890Z,40
2016-12-10T06:55:40.574Z,40
2016-12-10T06:56:40.229Z,44
2016-12-10T06:57:40.563Z,48
2016-12-10T06:58:40.581Z,52
2016-12-10T06:59:39.962Z,64
2016-12-10T07:00:40.292Z,68
2016-12-10T07:01:40.620Z,72
2016-12-10T07:02:40.328Z,80
2016-12-10T07:03:40.655Z,88
2016-12-10T07:04:40.690Z,96
2016-12-10T07:05:40.687Z,108
2016-12-10T07:06:41.013Z,112
2016-12-10T07:07:40.716Z,124
2016-12-10T07:08:41.058Z,132
2016-12-10T07:09:41.064Z,144
2016-12-10T07:10:40.132Z,152
2016-12-10T07:11:40.469Z,164
2016-12-10T07:12:40.806Z,168
2016-12-10T07:13:40.808Z,180
2016-12-10T07:14:41.138Z,192
2016-12-10T07:15:40.516Z,200
2016-12-10T07:16:40.916Z,212
2016-12-10T07:17:40.570Z,224
2016-12-10T07:18:40.906Z,228
2016-12-10T07:19:40.580Z,240
2016-12-10T07:20:40.913Z,252
2016-12-10T07:21:41.240Z,260
2016-12-10T07:22:40.942Z,268
2016-12-10T07:23:40.964Z,280
2016-12-10T07:24:40.988Z,284
2016-12-10T07:25:40.675Z,292
2016-12-10T07:26:40.720Z,300
2016-12-10T07:27:40.715Z,312
2016-12-10T07:28:40.722Z,320
2016-12-10T07:29:40.748Z,328
2016-12-10T07:30:41.091Z,332
2016-12-10T07:31:41.112Z,340
2016-12-10T07:32:40.478Z,344
2016-12-10T07:33:40.802Z,352
2016-12-10T07:34:40.811Z,356
2016-12-10T07:35:40.851Z,364
2016-12-10T07:36:41.162Z,368
2016-12-10T07:37:41.175Z,376
2016-12-10T07:38:41.189Z,380
2016-12-10T07:39:40.915Z,384
2016-12-10T07:40:41.254Z,388
2016-12-10T07:41:41.577Z,388
2016-12-10T07:42:41.251Z,324
2016-12-10T07:43:41.267Z,324
2016-12-10T07:44:40.649Z,328
2016-12-10T07:45:40.981Z,332
2016-12-10T07:46:40.996Z,332
2016-12-10T07:47:41.016Z,332
2016-12-10T07:48:41.028Z,336
2016-12-10T07:49:41.382Z,336
2016-12-10T07:50:41.057Z,336
2016-12-10T07:51:40.756Z,336
2016-12-10T07:52:41.087Z,336
2016-12-10T07:53:41.736Z,336
2016-12-10T07:54:41.144Z,336
2016-12-10T07:55:41.778Z,332
2016-12-10T07:56:41.465Z,332
2016-12-10T07:57:41.513Z,332
2016-12-10T07:58:41.186Z,332
2016-12-10T07:59:41.242Z,328
2016-12-10T08:00:41.212Z,328
2016-12-10T08:01:41.536Z,328
2016-12-10T08:02:41.238Z,332
2016-12-10T08:03:41.261Z,336
2016-12-10T08:04:41.588Z,336
2016-12-10T08:05:40.965Z,336
2016-12-10T08:06:41.296Z,336
2016-12-10T08:07:41.944Z,336
2016-12-10T08:08:41.652Z,332
2016-12-10T08:09:41.347Z,412
2016-12-10T08:10:41.680Z,412
2016-12-10T08:11:41.375Z,408
2016-12-10T08:12:41.079Z,408
2016-12-10T08:13:41.091Z,412
2016-12-10T08:14:41.423Z,412
2016-12-10T08:15:41.753Z,412
2016-12-10T08:16:41.140Z,408
2016-12-10T08:17:41.777Z,416
2016-12-10T08:18:41.485Z,420
2016-12-10T08:19:41.502Z,420
2016-12-10T08:20:42.146Z,424
2016-12-10T08:21:41.531Z,428
2016-12-10T08:22:41.557Z,428
2016-12-10T08:23:41.560Z,428
2016-12-10T08:24:41.890Z,432
2016-12-10T08:25:41.598Z,432
2016-12-10T08:26:41.923Z,436
2016-12-10T08:27:41.632Z,436
2016-12-10T08:28:41.959Z,440
2016-12-10T08:29:41.981Z,444
2016-12-10T08:30:41.676Z,444
2016-12-10T08:31:41.689Z,452
2016-12-10T08:32:42.020Z,456
2016-12-10T08:33:42.350Z,456
2016-12-10T08:34:41.738Z,452
2016-12-10T08:35:41.437Z,452
2016-12-10T08:36:42.083Z,452
2016-12-10T08:37:41.783Z,456
2016-12-10T08:38:41.482Z,456
2016-12-10T08:39:42.127Z,460
2016-12-10T08:40:41.836Z,464
2016-12-10T08:41:42.159Z,464
2016-12-10T08:42:42.177Z,468
2016-12-10T08:43:42.200Z,468
2016-12-10T08:44:42.220Z,472
2016-12-10T08:45:42.229Z,472
2016-12-10T08:46:42.565Z,472
2016-12-10T08:47:42.263Z,472
2016-12-10T08:48:42.280Z,448
2016-12-10T08:49:41.981Z,448
2016-12-10T08:50:42.305Z,448
2016-12-10T08:51:42.017Z,456
2016-12-10T08:52:42.333Z,460
2016-12-10T08:53:41.730Z,464
2016-12-10T08:54:42.370Z,468
2016-12-10T08:55:42.070Z,464
2016-12-10T08:56:42.401Z,472
2016-12-10T08:57:41.785Z,472
2016-12-10T08:58:42.751Z,476
2016-12-10T08:59:41.824Z,484
2016-12-10T09:00:42.469Z,488
2016-12-10T09:01:41.851Z,496
2016-12-10T09:02:42.502Z,516
2016-12-10T09:03:42.831Z,536
2016-12-10T09:04:41.899Z,556
2016-12-10T09:05:42.234Z,584
2016-12-10T09:06:42.248Z,628
2016-12-10T09:07:42.586Z,688
2016-12-10T09:08:42.598Z,764
2016-12-10T09:09:42.610Z,884
2016-12-10T09:10:42.310Z,1220
2016-12-10T09:11:42.646Z,2060
2016-12-10T09:12:42.345Z,3588
2016-12-10T09:13:42.366Z,4460
2016-12-10T09:14:42.694Z,4160
2016-12-10T09:15:42.748Z,3100
2016-12-10T09:16:42.414Z,2208
2016-12-10T09:17:43.063Z,1932
2016-12-10T09:18:42.135Z,2272
2016-12-10T09:19:42.485Z,3076
2016-12-10T09:20:42.478Z,3268
2016-12-10T09:21:42.517Z,2856
2016-12-10T09:22:43.151Z,2464
2016-12-10T09:23:42.539Z,2848
2016-12-10T09:24:42.549Z,4460
2016-12-10T09:25:42.587Z,6304
2016-12-10T09:26:42.903Z,7076
2016-12-10T09:27:42.609Z,6164
2016-12-10T09:28:43.274Z,4428
2016-12-10T09:29:42.971Z,3076
2016-12-10T09:30:42.665Z,2420
2016-12-10T09:31:43.327Z,2392
2016-12-10T09:32:43.021Z,2892
2016-12-10T09:33:42.718Z,3308
2016-12-10T09:34:43.058Z,3220
2016-12-10T09:35:43.390Z,3188
2016-12-10T09:36:43.132Z,3152
2016-12-10T09:37:42.810Z,3156
2016-12-10T09:38:43.140Z,3236
2016-12-10T09:39:43.490Z,3620
2016-12-10T09:40:42.882Z,4004
2016-12-10T09:41:43.205Z,4248
2016-12-10T09:42:43.222Z,4520
2016-12-10T09:43:43.246Z,4884
2016-12-10T09:44:43.581Z,5396
2016-12-10T09:45:43.283Z,5552
2016-12-10T09:46:42.992Z,5904
2016-12-10T09:47:43.035Z,6572
2016-12-10T09:48:43.033Z,6332
2016-12-10T09:49:42.736Z,5396
2016-12-10T09:50:42.768Z,3968
2016-12-10T09:51:42.783Z,2992
2016-12-10T09:52:43.122Z,2608
2016-12-10T09:53:42.825Z,2476
2016-12-10T09:54:42.871Z,2280
2016-12-10T09:55:42.868Z,2328
2016-12-10T09:56:43.209Z,2340
2016-12-10T09:57:43.541Z,2732
2016-12-10T09:58:43.253Z,3636
2016-12-10T09:59:43.282Z,3476
2016-12-10T10:00:43.612Z,2824
2016-12-10T10:01:43.665Z,2520
2016-12-10T10:02:43.657Z,2384
2016-12-10T10:03:43.366Z,2344
2016-12-10T10:04:44.022Z,2496
2016-12-10T10:05:43.094Z,2584
2016-12-10T10:06:43.442Z,2784
2016-12-10T10:07:43.792Z,3304
2016-12-10T10:08:43.486Z,3384
2016-12-10T10:09:43.818Z,3784
2016-12-10T10:10:43.844Z,3964
2016-12-10T10:11:43.865Z,3400
2016-12-10T10:12:43.572Z,2956
2016-12-10T10:13:43.596Z,2904
2016-12-10T10:14:43.617Z,2932
2016-12-10T10:15:43.971Z,2952
2016-12-10T10:16:43.981Z,3444
2016-12-10T10:17:44.004Z,3984
2016-12-10T10:18:44.024Z,3532
2016-12-10T10:19:44.368Z,3164
2016-12-10T10:20:44.075Z,3000
2016-12-10T10:21:44.432Z,2896
2016-12-10T10:22:44.136Z,2904
2016-12-10T10:23:44.148Z,2880
2016-12-10T10:24:44.175Z,2940
2016-12-10T10:25:43.560Z,3144
2016-12-10T10:26:44.227Z,3140
2016-12-10T10:27:43.620Z,3188
2016-12-10T10:28:44.263Z,3048
2016-12-10T10:29:43.658Z,3336
2016-12-10T10:30:44.315Z,3512
2016-12-10T10:31:44.021Z,3544
2016-12-10T10:32:44.674Z,3632
2016-12-10T10:33:44.071Z,3596
2016-12-10T10:34:44.093Z,3600
2016-12-10T10:35:44.437Z,3464
2016-12-10T10:36:44.457Z,3588
2016-12-10T10:37:43.855Z,3680
2016-12-10T10:38:44.191Z,3928
2016-12-10T10:39:44.532Z,4524
2016-12-10T10:40:43.924Z,4540
2016-12-10T10:41:44.265Z,4580
2016-12-10T10:42:44.310Z,4164
2016-12-10T10:43:44.331Z,3332
2016-12-10T10:44:44.337Z,3432
2016-12-10T10:45:44.680Z,3724
2016-12-10T10:46:44.701Z,3964
2016-12-10T10:47:44.732Z,3792
2016-12-10T10:48:44.445Z,3348
2016-12-10T10:49:44.460Z,2752
2016-12-10T10:50:45.111Z,2364
2016-12-10T10:51:44.551Z,2136
2016-12-10T10:52:44.537Z,2132
2016-12-10T10:53:44.556Z,2216
2016-12-10T10:54:44.280Z,2168
2016-12-10T10:55:45.238Z,2312
2016-12-10T10:56:44.678Z,2292
2016-12-10T10:57:45.309Z,2188
2016-12-10T10:58:45.004Z,2164
2016-12-10T10:59:44.709Z,2164
2016-12-10T11:00:45.367Z,2136
2016-12-10T11:01:45.072Z,2124
2016-12-10T11:02:45.095Z,2100
2016-12-10T11:03:44.808Z,2028
2016-12-10T11:04:44.829Z,2036
2016-12-10T11:05:45.171Z,2020
2016-12-10T11:06:45.202Z,2020
2016-12-10T11:07:45.217Z,2052
2016-12-10T11:08:45.562Z,2068
2016-12-10T11:09:44.957Z,2068
2016-12-10T11:10:44.657Z,2080
2016-12-10T11:11:45.002Z,2100
2016-12-10T11:12:45.413Z,2072
2016-12-10T11:13:45.051Z,2052
2016-12-10T11:14:45.077Z,2044
2016-12-10T11:15:45.126Z,2084
2016-12-10T11:16:45.443Z,2076
2016-12-10T11:17:45.516Z,2096
2016-12-10T11:18:45.805Z,2092
2016-12-10T11:19:45.512Z,2100
2016-12-10T11:20:45.868Z,2120
2016-12-10T11:21:45.253Z,2104
2016-12-10T11:22:45.298Z,2144
2016-12-10T11:23:45.642Z,2148
2016-12-10T11:24:45.322Z,2144
2016-12-10T11:25:45.979Z,2160
2016-12-10T11:26:45.689Z,2152
2016-12-10T11:27:45.732Z,2156
2016-12-10T11:28:45.423Z,2156
2016-12-10T11:29:45.465Z,2132
2016-12-10T11:30:45.486Z,2132
2016-12-10T11:31:45.820Z,2128
2016-12-10T11:32:45.216Z,2108
2016-12-10T11:33:45.863Z,2076
2016-12-10T11:34:45.577Z,2084
2016-12-10T11:35:45.913Z,2068
2016-12-10T11:36:45.622Z,2064
2016-12-10T11:37:45.963Z,2052
2016-12-10T11:38:46.004Z,2040
2016-12-10T11:39:46.327Z,2040
2016-12-10T11:40:46.375Z,2024
2016-12-10T11:41:46.121Z,2008
2016-12-10T11:42:45.775Z,1976
2016-12-10T11:43:45.485Z,1984
2016-12-10T11:44:46.140Z,1940
2016-12-10T11:45:45.850Z,1936
2016-12-10T11:46:46.190Z,1912
2016-12-10T11:47:46.529Z,1980
2016-12-10T11:48:46.246Z,2000
2016-12-10T11:49:45.966Z,2008
2016-12-10T11:50:45.981Z,2004
2016-12-10T11:51:45.998Z,1988
2016-12-10T11:52:46.022Z,1972
2016-12-10T11:53:45.730Z,1976
2016-12-10T11:54:46.083Z,1956
2016-12-10T11:55:46.103Z,1964
2016-12-10T11:56:46.448Z,1980
2016-12-10T11:57:46.469Z,1980
2016-12-10T11:58:46.494Z,1976
2016-12-10T11:59:46.206Z,1968
2016-12-10T12:00:45.907Z,1964
2016-12-10T12:01:46.561Z,1960
2016-12-10T12:02:46.301Z,1944
2016-12-10T12:03:46.344Z,1932
2016-12-10T12:04:46.334Z,1920
2016-12-10T12:05:46.357Z,1912
2016-12-10T12:06:46.381Z,1896
2016-12-10T12:07:46.085Z,1868
2016-12-10T12:08:46.113Z,1860
2016-12-10T12:09:46.144Z,1828
2016-12-10T12:10:46.798Z,1812
2016-12-10T12:11:46.508Z,1796
2016-12-10T12:12:47.187Z,1792
2016-12-10T12:13:46.560Z,1764
2016-12-10T12:14:46.586Z,1744
2016-12-10T12:15:46.613Z,1752
2016-12-10T12:16:46.654Z,1704
2016-12-10T12:17:46.978Z,1728
2016-12-10T12:18:46.688Z,1724
2016-12-10T12:19:46.429Z,1708
2016-12-10T12:20:46.424Z,1716
2016-12-10T12:21:46.467Z,1720
2016-12-10T12:22:47.104Z,1724
2016-12-10T12:23:46.825Z,1724
2016-12-10T12:24:46.843Z,1728
2016-12-10T12:25:46.550Z,1720
2016-12-10T12:26:46.894Z,1716
2016-12-10T12:27:47.243Z,1708
2016-12-10T12:28:47.263Z,1700
2016-12-10T12:29:47.283Z,1692
2016-12-10T12:30:46.697Z,1684
2016-12-10T12:31:47.020Z,1676
2016-12-10T12:32:47.135Z,1664
2016-12-10T12:33:47.082Z,1660
2016-12-10T12:34:47.413Z,1656
2016-12-10T12:35:47.523Z,1656
2016-12-10T12:36:47.156Z,1644
2016-12-10T12:37:46.858Z,1636
2016-12-10T12:38:47.205Z,1624
2016-12-10T12:39:47.543Z,1612
2016-12-10T12:40:46.939Z,1496
2016-12-10T12:41:47.596Z,1584
2016-12-10T12:42:47.309Z,1576
2016-12-10T12:43:47.996Z,1572
2016-12-10T12:44:47.043Z,1572
2016-12-10T12:45:47.384Z,1572
2016-12-10T12:46:47.752Z,1564
2016-12-10T12:47:47.434Z,1556
2016-12-10T12:48:47.140Z,1552
2016-12-10T12:49:47.802Z,1548
2016-12-10T12:50:48.142Z,1532
2016-12-10T12:51:47.902Z,1528
2016-12-10T12:52:47.568Z,1520
2016-12-10T12:53:47.901Z,1512
2016-12-10T12:54:48.247Z,1504
2016-12-10T12:55:47.961Z,1500
2016-12-10T12:56:47.979Z,1488
2016-12-10T12:57:47.697Z,1488
2016-12-10T12:58:48.360Z,1476
2016-12-10T12:59:47.739Z,1472
2016-12-10T13:00:48.097Z,1464
2016-12-10T13:01:47.797Z,1460
2016-12-10T13:02:48.134Z,1460
2016-12-10T13:03:47.845Z,1460
2016-12-10T13:04:47.879Z,1456
2016-12-10T13:05:47.897Z,1444
2016-12-10T13:06:48.558Z,1428
2016-12-10T13:07:47.947Z,1412
2016-12-10T13:08:47.972Z,1388
2016-12-10T13:09:48.317Z,1372
2016-12-10T13:10:48.334Z,1360
2016-12-10T13:11:48.058Z,1344
2016-12-10T13:12:48.077Z,1332
2016-12-10T13:13:48.134Z,1324
2016-12-10T13:14:47.815Z,1312
2016-12-10T13:15:48.153Z,1304
2016-12-10T13:16:48.494Z,1300
2016-12-10T13:17:47.888Z,1296
2016-12-10T13:18:48.229Z,1288
2016-12-10T13:19:48.272Z,1284
2016-12-10T13:20:47.970Z,1272
2016-12-10T13:21:47.999Z,1260
2016-12-10T13:22:48.332Z,1248
2016-12-10T13:23:48.365Z,1232
2016-12-10T13:24:48.696Z,1244
2016-12-10T13:25:48.411Z,1228
2016-12-10T13:26:48.436Z,1216
2016-12-10T13:27:48.462Z,1208
2016-12-10T13:28:48.485Z,1192
2016-12-10T13:29:48.830Z,1184
2016-12-10T13:30:49.171Z,1192
2016-12-10T13:31:48.267Z,1188
2016-12-10T13:32:49.227Z,1180
2016-12-10T13:33:48.621Z,1172
2016-12-10T13:34:48.642Z,1172
2016-12-10T13:35:48.986Z,1164
2016-12-10T13:36:49.011Z,1152
2016-12-10T13:37:48.401Z,1140
2016-12-10T13:38:49.059Z,1128
2016-12-10T13:39:48.781Z,1124
2016-12-10T13:40:49.427Z,1120
2016-12-10T13:41:49.139Z,1116
2016-12-10T13:42:49.492Z,1096
2016-12-10T13:43:49.192Z,1084
2016-12-10T13:44:49.212Z,1072
2016-12-10T13:45:48.919Z,1060
2016-12-10T13:46:48.633Z,1052
2016-12-10T13:47:49.291Z,1048
2016-12-10T13:48:49.315Z,1040
2016-12-10T13:49:49.658Z,1024
2016-12-10T13:50:49.363Z,1008
2016-12-10T13:51:49.090Z,996
2016-12-10T13:52:48.781Z,984
2016-12-10T13:53:49.442Z,960
2016-12-10T13:54:49.494Z,956
2016-12-10T13:55:49.807Z,948
2016-12-10T13:56:49.515Z,936
2016-12-10T13:57:49.562Z,924
2016-12-10T13:58:49.250Z,920
2016-12-10T13:59:49.622Z,916
2016-12-10T14:00:49.304Z,912
2016-12-10T14:01:49.326Z,900
2016-12-10T14:02:49.997Z,888
2016-12-10T14:03:49.056Z,884
2016-12-10T14:04:49.717Z,880